sensor_id;sensor_type;location;lat;lon;timestamp;temperature;humidity
546;DHT22;259;53.304;9.816;2023-07-22T00:02:22;19.70;88.80
546;DHT22;259;53.304;9.816;2023-07-22T00:04:51;19.70;89.00
546;DHT22;259;53.304;9.816;2023-07-22T00:07:17;19.60;88.90
546;DHT22;259;53.304;9.816;2023-07-22T00:09:43;19.60;88.80
546;DHT22;259;53.304;9.816;2023-07-22T00:12:09;19.60;88.90
546;DHT22;259;53.304;9.816;2023-07-22T00:14:39;19.60;88.90
546;DHT22;259;53.304;9.816;2023-07-22T00:17:05;19.60;88.80
546;DHT22;259;53.304;9.816;2023-07-22T00:19:31;19.60;88.70
546;DHT22;259;53.304;9.816;2023-07-22T00:21:57;19.60;88.80
546;DHT22;259;53.304;9.816;2023-07-22T00:24:22;19.60;88.80
546;DHT22;259;53.304;9.816;2023-07-22T00:26:48;19.50;88.70
546;DHT22;259;53.304;9.816;2023-07-22T00:29:15;19.50;88.60
546;DHT22;259;53.304;9.816;2023-07-22T00:31:41;19.60;88.80
546;DHT22;259;53.304;9.816;2023-07-22T00:34:07;19.50;88.70
546;DHT22;259;53.304;9.816;2023-07-22T00:36:33;19.50;88.70
546;DHT22;259;53.304;9.816;2023-07-22T00:38:59;19.50;88.80
546;DHT22;259;53.304;9.816;2023-07-22T00:41:26;19.50;88.90
546;DHT22;259;53.304;9.816;2023-07-22T00:43:52;19.50;88.80
546;DHT22;259;53.304;9.816;2023-07-22T00:46:18;19.50;88.50
546;DHT22;259;53.304;9.816;2023-07-22T00:48:44;19.50;88.50
546;DHT22;259;53.304;9.816;2023-07-22T00:51:10;19.40;88.40
546;DHT22;259;53.304;9.816;2023-07-22T00:53:36;19.40;88.40
546;DHT22;259;53.304;9.816;2023-07-22T00:56:02;19.40;88.50
546;DHT22;259;53.304;9.816;2023-07-22T00:58:28;19.40;88.50
546;DHT22;259;53.304;9.816;2023-07-22T01:00:54;19.40;88.70
546;DHT22;259;53.304;9.816;2023-07-22T01:03:19;19.40;88.60
546;DHT22;259;53.304;9.816;2023-07-22T01:05:47;19.40;88.60
546;DHT22;259;53.304;9.816;2023-07-22T01:08:13;19.40;88.70
546;DHT22;259;53.304;9.816;2023-07-22T01:10:39;19.40;88.70
546;DHT22;259;53.304;9.816;2023-07-22T01:13:05;19.40;88.70
546;DHT22;259;53.304;9.816;2023-07-22T01:15:31;19.40;88.60
546;DHT22;259;53.304;9.816;2023-07-22T01:17:58;19.40;88.70
546;DHT22;259;53.304;9.816;2023-07-22T01:20:28;19.30;88.50
546;DHT22;259;53.304;9.816;2023-07-22T01:22:55;19.30;88.50
546;DHT22;259;53.304;9.816;2023-07-22T01:25:21;19.30;88.70
546;DHT22;259;53.304;9.816;2023-07-22T01:27:48;19.30;88.70
546;DHT22;259;53.304;9.816;2023-07-22T01:30:15;19.30;88.70
546;DHT22;259;53.304;9.816;2023-07-22T01:32:40;19.30;88.70
546;DHT22;259;53.304;9.816;2023-07-22T01:35:07;19.30;88.70
546;DHT22;259;53.304;9.816;2023-07-22T01:37:34;19.30;88.80
546;DHT22;259;53.304;9.816;2023-07-22T01:40:00;19.30;88.60
546;DHT22;259;53.304;9.816;2023-07-22T01:42:25;19.20;88.50
546;DHT22;259;53.304;9.816;2023-07-22T01:44:52;19.30;88.80
546;DHT22;259;53.304;9.816;2023-07-22T01:47:18;19.20;88.40
546;DHT22;259;53.304;9.816;2023-07-22T01:49:44;19.20;88.60
546;DHT22;259;53.304;9.816;2023-07-22T01:52:10;19.20;88.50
546;DHT22;259;53.304;9.816;2023-07-22T01:54:36;19.20;88.50
546;DHT22;259;53.304;9.816;2023-07-22T01:57:01;19.20;88.60
546;DHT22;259;53.304;9.816;2023-07-22T01:59:27;19.20;88.50
546;DHT22;259;53.304;9.816;2023-07-22T02:01:53;19.20;88.70
546;DHT22;259;53.304;9.816;2023-07-22T02:04:18;19.20;88.60
546;DHT22;259;53.304;9.816;2023-07-22T02:06:44;19.10;88.50
546;DHT22;259;53.304;9.816;2023-07-22T02:09:10;19.10;88.40
546;DHT22;259;53.304;9.816;2023-07-22T02:11:39;19.10;88.50
546;DHT22;259;53.304;9.816;2023-07-22T02:14:05;19.10;88.30
546;DHT22;259;53.304;9.816;2023-07-22T02:16:34;19.10;88.50
546;DHT22;259;53.304;9.816;2023-07-22T02:19:00;19.10;88.30
546;DHT22;259;53.304;9.816;2023-07-22T02:21:26;19.10;88.40
546;DHT22;259;53.304;9.816;2023-07-22T02:23:51;19.10;88.40
546;DHT22;259;53.304;9.816;2023-07-22T02:26:17;19.10;88.50
546;DHT22;259;53.304;9.816;2023-07-22T02:28:43;19.00;88.40
546;DHT22;259;53.304;9.816;2023-07-22T02:31:08;19.00;88.40
546;DHT22;259;53.304;9.816;2023-07-22T02:33:34;19.00;89.30
546;DHT22;259;53.304;9.816;2023-07-22T02:36:00;19.00;88.50
546;DHT22;259;53.304;9.816;2023-07-22T02:38:26;19.00;88.50
546;DHT22;259;53.304;9.816;2023-07-22T02:40:51;19.00;88.50
546;DHT22;259;53.304;9.816;2023-07-22T02:43:17;19.00;88.30
546;DHT22;259;53.304;9.816;2023-07-22T02:45:43;19.00;88.50
546;DHT22;259;53.304;9.816;2023-07-22T02:48:09;19.00;88.40
546;DHT22;259;53.304;9.816;2023-07-22T02:50:35;19.00;88.50
546;DHT22;259;53.304;9.816;2023-07-22T02:53:02;19.00;88.40
546;DHT22;259;53.304;9.816;2023-07-22T02:55:27;19.00;88.60
546;DHT22;259;53.304;9.816;2023-07-22T02:57:53;18.90;88.40
546;DHT22;259;53.304;9.816;2023-07-22T03:00:19;18.90;88.50
546;DHT22;259;53.304;9.816;2023-07-22T03:02:53;18.90;88.50
546;DHT22;259;53.304;9.816;2023-07-22T03:05:19;18.90;88.50
546;DHT22;259;53.304;9.816;2023-07-22T03:07:46;18.90;88.50
546;DHT22;259;53.304;9.816;2023-07-22T03:10:12;18.90;88.40
546;DHT22;259;53.304;9.816;2023-07-22T03:12:38;18.90;88.50
546;DHT22;259;53.304;9.816;2023-07-22T03:15:04;18.90;88.50
546;DHT22;259;53.304;9.816;2023-07-22T03:17:34;18.90;88.30
546;DHT22;259;53.304;9.816;2023-07-22T03:20:01;18.90;88.30
546;DHT22;259;53.304;9.816;2023-07-22T03:22:29;18.80;88.20
546;DHT22;259;53.304;9.816;2023-07-22T03:24:55;18.80;88.30
546;DHT22;259;53.304;9.816;2023-07-22T03:27:21;18.80;88.20
546;DHT22;259;53.304;9.816;2023-07-22T03:29:46;18.80;88.30
546;DHT22;259;53.304;9.816;2023-07-22T03:32:12;18.80;88.20
546;DHT22;259;53.304;9.816;2023-07-22T03:34:38;18.80;88.30
546;DHT22;259;53.304;9.816;2023-07-22T03:37:03;18.80;88.40
546;DHT22;259;53.304;9.816;2023-07-22T03:39:29;18.70;88.30
546;DHT22;259;53.304;9.816;2023-07-22T03:41:55;18.70;88.40
546;DHT22;259;53.304;9.816;2023-07-22T03:44:20;18.70;88.20
546;DHT22;259;53.304;9.816;2023-07-22T03:46:46;18.80;88.40
546;DHT22;259;53.304;9.816;2023-07-22T03:49:12;18.70;88.20
546;DHT22;259;53.304;9.816;2023-07-22T03:51:37;18.70;88.40
546;DHT22;259;53.304;9.816;2023-07-22T03:54:03;18.70;88.50
546;DHT22;259;53.304;9.816;2023-07-22T03:56:29;18.70;88.50
546;DHT22;259;53.304;9.816;2023-07-22T03:58:54;18.70;88.30
546;DHT22;259;53.304;9.816;2023-07-22T04:01:20;18.60;88.40
546;DHT22;259;53.304;9.816;2023-07-22T04:03:46;18.60;88.50
546;DHT22;259;53.304;9.816;2023-07-22T04:06:11;18.60;88.30
546;DHT22;259;53.304;9.816;2023-07-22T04:08:37;18.60;88.40
546;DHT22;259;53.304;9.816;2023-07-22T04:11:03;18.60;88.20
546;DHT22;259;53.304;9.816;2023-07-22T04:13:29;18.60;88.30
546;DHT22;259;53.304;9.816;2023-07-22T04:15:55;18.60;88.20
546;DHT22;259;53.304;9.816;2023-07-22T04:18:20;18.70;88.50
546;DHT22;259;53.304;9.816;2023-07-22T04:20:47;18.60;88.20
546;DHT22;259;53.304;9.816;2023-07-22T04:23:15;18.60;88.20
546;DHT22;259;53.304;9.816;2023-07-22T04:25:42;18.60;88.30
546;DHT22;259;53.304;9.816;2023-07-22T04:28:08;18.60;88.30
546;DHT22;259;53.304;9.816;2023-07-22T04:30:38;18.60;88.40
546;DHT22;259;53.304;9.816;2023-07-22T04:33:05;18.60;88.50
546;DHT22;259;53.304;9.816;2023-07-22T04:35:37;18.50;88.30
546;DHT22;259;53.304;9.816;2023-07-22T04:38:03;18.50;88.30
546;DHT22;259;53.304;9.816;2023-07-22T04:40:30;18.50;88.40
546;DHT22;259;53.304;9.816;2023-07-22T04:42:56;18.50;88.30
546;DHT22;259;53.304;9.816;2023-07-22T04:45:23;18.50;88.20
546;DHT22;259;53.304;9.816;2023-07-22T04:47:51;18.50;88.50
546;DHT22;259;53.304;9.816;2023-07-22T04:50:18;18.50;88.40
546;DHT22;259;53.304;9.816;2023-07-22T04:52:47;18.50;88.50
546;DHT22;259;53.304;9.816;2023-07-22T04:55:14;18.50;88.50
546;DHT22;259;53.304;9.816;2023-07-22T04:57:40;18.50;88.50
546;DHT22;259;53.304;9.816;2023-07-22T05:00:08;18.50;88.50
546;DHT22;259;53.304;9.816;2023-07-22T05:02:45;18.50;88.60
546;DHT22;259;53.304;9.816;2023-07-22T05:05:17;18.40;88.40
546;DHT22;259;53.304;9.816;2023-07-22T05:07:43;18.40;88.50
546;DHT22;259;53.304;9.816;2023-07-22T05:10:10;18.40;88.40
546;DHT22;259;53.304;9.816;2023-07-22T05:12:41;18.40;88.40
546;DHT22;259;53.304;9.816;2023-07-22T05:15:09;18.40;88.70
546;DHT22;259;53.304;9.816;2023-07-22T05:17:36;18.40;88.80
546;DHT22;259;53.304;9.816;2023-07-22T05:20:01;18.40;88.60
546;DHT22;259;53.304;9.816;2023-07-22T05:22:29;18.40;88.60
546;DHT22;259;53.304;9.816;2023-07-22T05:24:54;18.40;88.60
546;DHT22;259;53.304;9.816;2023-07-22T05:27:21;18.40;88.70
546;DHT22;259;53.304;9.816;2023-07-22T05:29:47;18.40;88.60
546;DHT22;259;53.304;9.816;2023-07-22T05:32:12;18.40;89.00
546;DHT22;259;53.304;9.816;2023-07-22T05:34:38;18.30;88.60
546;DHT22;259;53.304;9.816;2023-07-22T05:37:04;18.30;88.80
546;DHT22;259;53.304;9.816;2023-07-22T05:39:30;18.30;88.90
546;DHT22;259;53.304;9.816;2023-07-22T05:41:56;18.30;88.90
546;DHT22;259;53.304;9.816;2023-07-22T05:44:21;18.30;88.70
546;DHT22;259;53.304;9.816;2023-07-22T05:46:47;18.30;88.80
546;DHT22;259;53.304;9.816;2023-07-22T05:49:13;18.30;88.90
546;DHT22;259;53.304;9.816;2023-07-22T05:51:38;18.30;88.90
546;DHT22;259;53.304;9.816;2023-07-22T05:54:04;18.30;88.70
546;DHT22;259;53.304;9.816;2023-07-22T05:56:30;18.30;88.60
546;DHT22;259;53.304;9.816;2023-07-22T05:58:56;18.30;88.80
546;DHT22;259;53.304;9.816;2023-07-22T06:01:23;18.30;88.70
546;DHT22;259;53.304;9.816;2023-07-22T06:03:50;18.30;88.70
546;DHT22;259;53.304;9.816;2023-07-22T06:06:16;18.30;88.70
546;DHT22;259;53.304;9.816;2023-07-22T06:08:41;18.30;88.90
546;DHT22;259;53.304;9.816;2023-07-22T06:11:07;18.30;88.90
546;DHT22;259;53.304;9.816;2023-07-22T06:13:33;18.30;88.90
546;DHT22;259;53.304;9.816;2023-07-22T06:15:59;18.30;88.80
546;DHT22;259;53.304;9.816;2023-07-22T06:18:24;18.30;89.20
546;DHT22;259;53.304;9.816;2023-07-22T06:20:50;18.30;89.10
546;DHT22;259;53.304;9.816;2023-07-22T06:23:16;18.30;89.20
546;DHT22;259;53.304;9.816;2023-07-22T06:25:42;18.30;89.10
546;DHT22;259;53.304;9.816;2023-07-22T06:28:08;18.20;89.10
546;DHT22;259;53.304;9.816;2023-07-22T06:30:34;18.20;89.20
546;DHT22;259;53.304;9.816;2023-07-22T06:33:00;18.30;89.30
546;DHT22;259;53.304;9.816;2023-07-22T06:35:26;18.40;89.50
546;DHT22;259;53.304;9.816;2023-07-22T06:37:51;18.20;89.40
546;DHT22;259;53.304;9.816;2023-07-22T06:40:17;18.30;89.40
546;DHT22;259;53.304;9.816;2023-07-22T06:42:43;18.30;89.40
546;DHT22;259;53.304;9.816;2023-07-22T06:45:09;18.20;89.50
546;DHT22;259;53.304;9.816;2023-07-22T06:47:35;18.20;89.50
546;DHT22;259;53.304;9.816;2023-07-22T06:50:02;18.20;89.30
546;DHT22;259;53.304;9.816;2023-07-22T06:52:30;18.20;89.40
546;DHT22;259;53.304;9.816;2023-07-22T06:54:56;18.20;89.70
546;DHT22;259;53.304;9.816;2023-07-22T06:57:22;18.20;89.40
546;DHT22;259;53.304;9.816;2023-07-22T06:59:48;18.20;89.70
546;DHT22;259;53.304;9.816;2023-07-22T07:02:16;18.20;89.70
546;DHT22;259;53.304;9.816;2023-07-22T07:04:41;18.20;89.70
546;DHT22;259;53.304;9.816;2023-07-22T07:07:07;18.20;89.80
546;DHT22;259;53.304;9.816;2023-07-22T07:09:34;18.20;89.70
546;DHT22;259;53.304;9.816;2023-07-22T07:12:00;18.20;89.80
546;DHT22;259;53.304;9.816;2023-07-22T07:14:26;18.20;90.00
546;DHT22;259;53.304;9.816;2023-07-22T07:16:52;18.20;90.00
546;DHT22;259;53.304;9.816;2023-07-22T07:19:18;18.20;90.20
546;DHT22;259;53.304;9.816;2023-07-22T07:21:44;18.20;90.20
546;DHT22;259;53.304;9.816;2023-07-22T07:24:09;18.20;90.20
546;DHT22;259;53.304;9.816;2023-07-22T07:26:35;18.20;90.30
546;DHT22;259;53.304;9.816;2023-07-22T07:29:01;18.20;90.30
546;DHT22;259;53.304;9.816;2023-07-22T07:31:26;18.20;90.40
546;DHT22;259;53.304;9.816;2023-07-22T07:33:52;18.30;90.40
546;DHT22;259;53.304;9.816;2023-07-22T07:36:18;18.30;90.50
546;DHT22;259;53.304;9.816;2023-07-22T07:38:44;18.30;90.50
546;DHT22;259;53.304;9.816;2023-07-22T07:41:10;18.20;90.50
546;DHT22;259;53.304;9.816;2023-07-22T07:43:42;18.20;90.50
546;DHT22;259;53.304;9.816;2023-07-22T07:48:52;18.20;90.60
546;DHT22;259;53.304;9.816;2023-07-22T07:51:23;18.20;90.60
546;DHT22;259;53.304;9.816;2023-07-22T07:53:51;18.20;90.60
546;DHT22;259;53.304;9.816;2023-07-22T07:56:18;18.20;90.60
546;DHT22;259;53.304;9.816;2023-07-22T07:58:46;18.20;90.60
546;DHT22;259;53.304;9.816;2023-07-22T08:01:13;18.20;90.60
546;DHT22;259;53.304;9.816;2023-07-22T08:03:41;18.20;90.60
546;DHT22;259;53.304;9.816;2023-07-22T08:06:08;18.20;91.00
546;DHT22;259;53.304;9.816;2023-07-22T08:08:35;18.20;90.60
546;DHT22;259;53.304;9.816;2023-07-22T08:11:04;18.20;90.70
546;DHT22;259;53.304;9.816;2023-07-22T08:13:31;18.20;90.60
546;DHT22;259;53.304;9.816;2023-07-22T08:15:59;18.20;90.70
546;DHT22;259;53.304;9.816;2023-07-22T08:18:27;18.20;90.70
546;DHT22;259;53.304;9.816;2023-07-22T08:20:53;18.20;90.60
546;DHT22;259;53.304;9.816;2023-07-22T08:23:20;18.20;90.70
546;DHT22;259;53.304;9.816;2023-07-22T08:25:45;18.20;90.60
546;DHT22;259;53.304;9.816;2023-07-22T08:28:11;18.30;90.70
546;DHT22;259;53.304;9.816;2023-07-22T08:30:37;18.20;90.60
546;DHT22;259;53.304;9.816;2023-07-22T08:33:05;18.20;90.60
546;DHT22;259;53.304;9.816;2023-07-22T08:35:34;18.30;90.50
546;DHT22;259;53.304;9.816;2023-07-22T08:38:00;18.30;90.60
546;DHT22;259;53.304;9.816;2023-07-22T08:40:27;18.30;90.60
546;DHT22;259;53.304;9.816;2023-07-22T08:42:59;18.30;90.50
546;DHT22;259;53.304;9.816;2023-07-22T08:45:29;18.30;90.60
546;DHT22;259;53.304;9.816;2023-07-22T08:47:58;18.30;90.70
546;DHT22;259;53.304;9.816;2023-07-22T08:50:30;18.30;90.70
546;DHT22;259;53.304;9.816;2023-07-22T08:53:01;18.40;90.60
546;DHT22;259;53.304;9.816;2023-07-22T08:55:26;18.40;90.50
546;DHT22;259;53.304;9.816;2023-07-22T08:57:52;18.50;90.80
546;DHT22;259;53.304;9.816;2023-07-22T09:00:19;18.50;90.40
546;DHT22;259;53.304;9.816;2023-07-22T09:02:45;18.50;90.40
546;DHT22;259;53.304;9.816;2023-07-22T09:05:11;18.50;90.40
546;DHT22;259;53.304;9.816;2023-07-22T09:07:37;18.50;90.70
546;DHT22;259;53.304;9.816;2023-07-22T09:10:09;18.50;90.20
546;DHT22;259;53.304;9.816;2023-07-22T09:12:35;18.50;90.20
546;DHT22;259;53.304;9.816;2023-07-22T09:15:14;18.50;90.20
546;DHT22;259;53.304;9.816;2023-07-22T09:17:41;18.50;90.30
546;DHT22;259;53.304;9.816;2023-07-22T09:20:07;18.50;90.30
546;DHT22;259;53.304;9.816;2023-07-22T09:22:33;18.50;90.30
546;DHT22;259;53.304;9.816;2023-07-22T09:25:20;18.50;90.30
546;DHT22;259;53.304;9.816;2023-07-22T09:27:55;18.60;90.30
546;DHT22;259;53.304;9.816;2023-07-22T09:32:54;18.60;90.10
546;DHT22;259;53.304;9.816;2023-07-22T09:35:21;18.60;90.00
546;DHT22;259;53.304;9.816;2023-07-22T09:37:48;18.70;90.00
546;DHT22;259;53.304;9.816;2023-07-22T09:40:14;18.70;90.00
546;DHT22;259;53.304;9.816;2023-07-22T09:42:53;18.70;90.10
546;DHT22;259;53.304;9.816;2023-07-22T09:45:24;18.60;90.00
546;DHT22;259;53.304;9.816;2023-07-22T09:47:52;18.70;90.00
546;DHT22;259;53.304;9.816;2023-07-22T09:50:20;18.60;90.00
546;DHT22;259;53.304;9.816;2023-07-22T09:52:53;18.60;90.00
546;DHT22;259;53.304;9.816;2023-07-22T09:55:22;18.70;90.00
546;DHT22;259;53.304;9.816;2023-07-22T09:58:01;18.60;90.00
546;DHT22;259;53.304;9.816;2023-07-22T10:00:33;18.60;89.90
546;DHT22;259;53.304;9.816;2023-07-22T10:03:01;18.60;89.90
546;DHT22;259;53.304;9.816;2023-07-22T10:05:28;18.70;90.00
546;DHT22;259;53.304;9.816;2023-07-22T10:07:57;18.70;90.00
546;DHT22;259;53.304;9.816;2023-07-22T10:10:30;18.70;90.00
546;DHT22;259;53.304;9.816;2023-07-22T10:12:57;18.70;90.00
546;DHT22;259;53.304;9.816;2023-07-22T10:15:28;18.70;90.00
546;DHT22;259;53.304;9.816;2023-07-22T10:17:55;18.70;90.00
546;DHT22;259;53.304;9.816;2023-07-22T10:20:22;18.70;90.00
546;DHT22;259;53.304;9.816;2023-07-22T10:22:49;18.70;90.00
546;DHT22;259;53.304;9.816;2023-07-22T10:25:16;18.70;90.00
546;DHT22;259;53.304;9.816;2023-07-22T10:27:47;18.70;90.00
546;DHT22;259;53.304;9.816;2023-07-22T10:30:15;18.70;89.90
546;DHT22;259;53.304;9.816;2023-07-22T10:32:49;18.70;89.70
546;DHT22;259;53.304;9.816;2023-07-22T10:37:55;18.80;89.80
546;DHT22;259;53.304;9.816;2023-07-22T10:42:57;18.90;89.60
546;DHT22;259;53.304;9.816;2023-07-22T10:45:25;18.90;89.60
546;DHT22;259;53.304;9.816;2023-07-22T10:48:10;18.90;89.40
546;DHT22;259;53.304;9.816;2023-07-22T10:53:29;18.90;89.30
546;DHT22;259;53.304;9.816;2023-07-22T11:11:54;18.90;89.30
546;DHT22;259;53.304;9.816;2023-07-22T11:14:23;18.90;89.40
546;DHT22;259;53.304;9.816;2023-07-22T11:16:50;18.90;89.30
546;DHT22;259;53.304;9.816;2023-07-22T11:19:18;18.90;89.40
546;DHT22;259;53.304;9.816;2023-07-22T11:21:47;18.90;89.30
546;DHT22;259;53.304;9.816;2023-07-22T11:24:13;18.90;89.30
546;DHT22;259;53.304;9.816;2023-07-22T11:26:40;18.90;89.30
546;DHT22;259;53.304;9.816;2023-07-22T11:29:09;19.00;89.50
546;DHT22;259;53.304;9.816;2023-07-22T11:31:39;19.00;89.50
546;DHT22;259;53.304;9.816;2023-07-22T11:34:09;19.00;89.50
546;DHT22;259;53.304;9.816;2023-07-22T11:36:35;19.00;89.50
546;DHT22;259;53.304;9.816;2023-07-22T11:39:09;19.10;89.60
546;DHT22;259;53.304;9.816;2023-07-22T11:41:36;19.10;89.70
546;DHT22;259;53.304;9.816;2023-07-22T11:44:03;19.10;89.60
546;DHT22;259;53.304;9.816;2023-07-22T11:46:57;19.10;89.50
546;DHT22;259;53.304;9.816;2023-07-22T11:49:41;19.20;89.70
546;DHT22;259;53.304;9.816;2023-07-22T11:52:17;19.20;89.70
546;DHT22;259;53.304;9.816;2023-07-22T11:54:44;19.20;89.60
546;DHT22;259;53.304;9.816;2023-07-22T11:57:23;19.20;90.10
546;DHT22;259;53.304;9.816;2023-07-22T11:59:53;19.20;89.60
546;DHT22;259;53.304;9.816;2023-07-22T12:02:22;19.20;89.70
546;DHT22;259;53.304;9.816;2023-07-22T12:04:52;19.20;89.80
546;DHT22;259;53.304;9.816;2023-07-22T12:07:29;19.20;89.80
546;DHT22;259;53.304;9.816;2023-07-22T12:10:04;19.20;89.80
546;DHT22;259;53.304;9.816;2023-07-22T12:12:32;19.20;89.80
546;DHT22;259;53.304;9.816;2023-07-22T12:15:18;19.20;89.80
546;DHT22;259;53.304;9.816;2023-07-22T12:17:55;19.20;89.80
546;DHT22;259;53.304;9.816;2023-07-22T12:20:29;19.20;89.90
546;DHT22;259;53.304;9.816;2023-07-22T12:22:59;19.20;89.90
546;DHT22;259;53.304;9.816;2023-07-22T12:25:25;19.20;90.00
546;DHT22;259;53.304;9.816;2023-07-22T12:27:51;19.20;90.00
546;DHT22;259;53.304;9.816;2023-07-22T12:30:17;19.20;90.00
546;DHT22;259;53.304;9.816;2023-07-22T12:32:43;19.20;90.00
546;DHT22;259;53.304;9.816;2023-07-22T12:35:09;19.20;90.00
546;DHT22;259;53.304;9.816;2023-07-22T12:37:35;19.30;90.00
546;DHT22;259;53.304;9.816;2023-07-22T12:40:01;19.20;90.00
546;DHT22;259;53.304;9.816;2023-07-22T12:42:30;19.20;90.00
546;DHT22;259;53.304;9.816;2023-07-22T12:44:55;19.20;90.00
546;DHT22;259;53.304;9.816;2023-07-22T12:47:21;19.20;90.10
546;DHT22;259;53.304;9.816;2023-07-22T12:49:47;19.20;90.10
546;DHT22;259;53.304;9.816;2023-07-22T12:52:12;19.20;90.10
546;DHT22;259;53.304;9.816;2023-07-22T12:54:38;19.20;90.10
546;DHT22;259;53.304;9.816;2023-07-22T12:57:05;19.20;90.10
546;DHT22;259;53.304;9.816;2023-07-22T12:59:31;19.20;90.10
546;DHT22;259;53.304;9.816;2023-07-22T13:01:57;19.20;90.10
546;DHT22;259;53.304;9.816;2023-07-22T13:04:23;19.20;90.10
546;DHT22;259;53.304;9.816;2023-07-22T13:06:50;19.20;90.10
546;DHT22;259;53.304;9.816;2023-07-22T13:09:17;19.20;90.10
546;DHT22;259;53.304;9.816;2023-07-22T13:11:43;19.20;90.40
546;DHT22;259;53.304;9.816;2023-07-22T13:14:09;19.20;90.10
546;DHT22;259;53.304;9.816;2023-07-22T13:16:35;19.20;90.10
546;DHT22;259;53.304;9.816;2023-07-22T13:19:00;19.20;90.10
546;DHT22;259;53.304;9.816;2023-07-22T13:21:28;19.20;90.10
546;DHT22;259;53.304;9.816;2023-07-22T13:23:55;19.20;90.10
546;DHT22;259;53.304;9.816;2023-07-22T13:26:20;19.20;90.10
546;DHT22;259;53.304;9.816;2023-07-22T13:28:46;19.20;90.10
546;DHT22;259;53.304;9.816;2023-07-22T13:31:12;19.20;90.10
546;DHT22;259;53.304;9.816;2023-07-22T13:33:38;19.30;90.10
546;DHT22;259;53.304;9.816;2023-07-22T13:36:03;19.20;90.10
546;DHT22;259;53.304;9.816;2023-07-22T13:38:29;19.30;90.10
546;DHT22;259;53.304;9.816;2023-07-22T13:40:55;19.30;90.10
546;DHT22;259;53.304;9.816;2023-07-22T13:43:21;19.20;90.00
546;DHT22;259;53.304;9.816;2023-07-22T13:45:46;19.30;90.00
546;DHT22;259;53.304;9.816;2023-07-22T13:48:12;19.20;89.90
546;DHT22;259;53.304;9.816;2023-07-22T13:50:38;19.20;89.90
546;DHT22;259;53.304;9.816;2023-07-22T13:53:03;19.30;90.00
546;DHT22;259;53.304;9.816;2023-07-22T13:55:29;19.30;90.00
546;DHT22;259;53.304;9.816;2023-07-22T13:57:55;19.30;90.10
546;DHT22;259;53.304;9.816;2023-07-22T14:00:20;19.30;90.10
546;DHT22;259;53.304;9.816;2023-07-22T14:02:46;19.30;90.10
546;DHT22;259;53.304;9.816;2023-07-22T14:05:12;19.30;90.10
546;DHT22;259;53.304;9.816;2023-07-22T14:07:38;19.30;90.10
546;DHT22;259;53.304;9.816;2023-07-22T14:10:05;19.30;90.10
546;DHT22;259;53.304;9.816;2023-07-22T14:12:31;19.30;90.10
546;DHT22;259;53.304;9.816;2023-07-22T14:14:57;19.30;90.10
546;DHT22;259;53.304;9.816;2023-07-22T14:17:22;19.30;90.20
546;DHT22;259;53.304;9.816;2023-07-22T14:19:48;19.30;90.20
546;DHT22;259;53.304;9.816;2023-07-22T14:22:14;19.30;90.20
546;DHT22;259;53.304;9.816;2023-07-22T14:24:39;19.30;90.30
546;DHT22;259;53.304;9.816;2023-07-22T14:27:06;19.30;90.30
546;DHT22;259;53.304;9.816;2023-07-22T14:29:32;19.30;90.30
546;DHT22;259;53.304;9.816;2023-07-22T14:31:57;19.30;90.30
546;DHT22;259;53.304;9.816;2023-07-22T14:34:23;19.30;90.30
546;DHT22;259;53.304;9.816;2023-07-22T14:36:49;19.30;90.30
546;DHT22;259;53.304;9.816;2023-07-22T14:39:15;19.30;90.30
546;DHT22;259;53.304;9.816;2023-07-22T14:41:41;19.30;90.30
546;DHT22;259;53.304;9.816;2023-07-22T14:44:10;19.30;90.30
546;DHT22;259;53.304;9.816;2023-07-22T14:46:36;19.30;90.30
546;DHT22;259;53.304;9.816;2023-07-22T14:49:03;19.30;90.30
546;DHT22;259;53.304;9.816;2023-07-22T14:51:29;19.30;90.30
546;DHT22;259;53.304;9.816;2023-07-22T14:53:55;19.30;90.30
546;DHT22;259;53.304;9.816;2023-07-22T14:56:21;19.30;90.30
546;DHT22;259;53.304;9.816;2023-07-22T14:58:47;19.30;90.30
546;DHT22;259;53.304;9.816;2023-07-22T15:01:14;19.30;90.40
546;DHT22;259;53.304;9.816;2023-07-22T15:03:40;19.30;90.40
546;DHT22;259;53.304;9.816;2023-07-22T15:06:06;19.30;90.40
546;DHT22;259;53.304;9.816;2023-07-22T15:08:32;19.30;90.50
546;DHT22;259;53.304;9.816;2023-07-22T15:10:58;19.30;90.50
546;DHT22;259;53.304;9.816;2023-07-22T15:13:24;19.30;90.50
546;DHT22;259;53.304;9.816;2023-07-22T15:15:49;19.30;90.50
546;DHT22;259;53.304;9.816;2023-07-22T15:18:15;19.30;90.50
546;DHT22;259;53.304;9.816;2023-07-22T15:20:43;19.30;90.90
546;DHT22;259;53.304;9.816;2023-07-22T15:23:08;19.30;90.60
546;DHT22;259;53.304;9.816;2023-07-22T15:25:34;19.30;90.50
546;DHT22;259;53.304;9.816;2023-07-22T15:27:59;19.30;90.60
546;DHT22;259;53.304;9.816;2023-07-22T15:30:25;19.30;90.60
546;DHT22;259;53.304;9.816;2023-07-22T15:32:51;19.30;90.60
546;DHT22;259;53.304;9.816;2023-07-22T15:35:17;19.30;90.60
546;DHT22;259;53.304;9.816;2023-07-22T15:37:42;19.30;90.60
546;DHT22;259;53.304;9.816;2023-07-22T15:40:09;19.30;90.70
546;DHT22;259;53.304;9.816;2023-07-22T15:42:35;19.30;90.70
546;DHT22;259;53.304;9.816;2023-07-22T15:45:01;19.30;90.70
546;DHT22;259;53.304;9.816;2023-07-22T15:47:27;19.30;90.70
546;DHT22;259;53.304;9.816;2023-07-22T15:49:52;19.30;90.70
546;DHT22;259;53.304;9.816;2023-07-22T15:52:18;19.30;90.70
546;DHT22;259;53.304;9.816;2023-07-22T15:54:44;19.30;90.70
546;DHT22;259;53.304;9.816;2023-07-22T15:57:10;19.30;90.70
546;DHT22;259;53.304;9.816;2023-07-22T15:59:35;19.30;90.70
546;DHT22;259;53.304;9.816;2023-07-22T16:02:01;19.30;90.70
546;DHT22;259;53.304;9.816;2023-07-22T16:04:27;19.30;90.90
546;DHT22;259;53.304;9.816;2023-07-22T16:06:53;19.30;90.80
546;DHT22;259;53.304;9.816;2023-07-22T16:09:18;19.30;90.80
546;DHT22;259;53.304;9.816;2023-07-22T16:11:44;19.30;90.80
546;DHT22;259;53.304;9.816;2023-07-22T16:14:10;19.30;90.80
546;DHT22;259;53.304;9.816;2023-07-22T16:16:37;19.30;90.80
546;DHT22;259;53.304;9.816;2023-07-22T16:19:02;19.30;90.80
546;DHT22;259;53.304;9.816;2023-07-22T16:21:28;19.30;90.80
546;DHT22;259;53.304;9.816;2023-07-22T16:23:54;19.30;90.80
546;DHT22;259;53.304;9.816;2023-07-22T16:26:19;19.30;90.70
546;DHT22;259;53.304;9.816;2023-07-22T16:28:45;19.30;90.70
546;DHT22;259;53.304;9.816;2023-07-22T16:31:11;19.30;90.80
546;DHT22;259;53.304;9.816;2023-07-22T16:33:36;19.30;90.70
546;DHT22;259;53.304;9.816;2023-07-22T16:36:02;19.20;90.70
546;DHT22;259;53.304;9.816;2023-07-22T16:38:28;19.30;90.80
546;DHT22;259;53.304;9.816;2023-07-22T16:40:54;19.30;90.80
546;DHT22;259;53.304;9.816;2023-07-22T16:43:19;19.20;90.70
546;DHT22;259;53.304;9.816;2023-07-22T16:45:45;19.20;90.80
546;DHT22;259;53.304;9.816;2023-07-22T16:48:11;19.20;90.80
546;DHT22;259;53.304;9.816;2023-07-22T16:50:36;19.20;90.70
546;DHT22;259;53.304;9.816;2023-07-22T16:53:03;19.20;90.70
546;DHT22;259;53.304;9.816;2023-07-22T16:55:30;19.20;90.70
546;DHT22;259;53.304;9.816;2023-07-22T16:57:56;19.20;90.70
546;DHT22;259;53.304;9.816;2023-07-22T17:00:21;19.20;90.70
546;DHT22;259;53.304;9.816;2023-07-22T17:02:47;19.20;90.80